Moyer Aviation Incorporated

Pocono Mountains Airport

188 Airport Drive. Tobyhanna, PA 18466 

P: 570-839-7161
800-321-5890
F: 570-839-7162

Weather

Weather

Pocono Weather

KMPO 261853Z AUTO 29009KT 10SM CLR 27/13 A2989 RMK AO2 SLP107 T02670128

Allentown Weather

KABE 261851Z 10SM CLR 32/17 A2981 RMK AO2 SLP089 T03170172

Wilkes-Barre Weather

KAVP 261854Z 03007KT 10SM CLR 30/11 A2984 RMK AO2 SLP093 T03000106


* required field

Contact Us